createdAt,value
2023-01-31T00:02:25.882Z,66.88
2023-01-31T00:06:31.374Z,66.59
2023-01-31T00:10:36.217Z,66.15
2023-01-31T00:14:39.772Z,66.87
2023-01-31T00:18:43.774Z,67.29
2023-01-31T00:22:46.780Z,67.47
2023-01-31T00:26:56.878Z,68.07
2023-01-31T00:31:02.442Z,68.34
2023-01-31T00:35:06.250Z,68.41
2023-01-31T00:39:10.223Z,68.43
2023-01-31T00:43:14.619Z,68.43
2023-01-31T00:47:17.641Z,68.12
2023-01-31T00:51:21.837Z,68.64
2023-01-31T00:55:24.838Z,68.57
2023-01-31T00:59:29.269Z,68.70
2023-01-31T01:03:32.353Z,68.84
2023-01-31T01:07:35.871Z,68.80
2023-01-31T01:11:39.002Z,68.69
2023-01-31T01:15:43.608Z,68.50
2023-01-31T01:19:46.779Z,68.77
2023-01-31T01:23:50.714Z,68.42
2023-01-31T01:27:53.753Z,68.49
2023-01-31T01:31:58.266Z,68.31
2023-01-31T01:36:02.722Z,68.23
2023-01-31T01:40:06.515Z,67.92
2023-01-31T01:44:44.701Z,67.87
2023-01-31T01:48:54.967Z,67.35
2023-01-31T01:53:02.730Z,67.74
2023-01-31T01:57:09.781Z,67.32
2023-01-31T02:01:16.800Z,67.79
2023-01-31T02:05:29.712Z,67.54
2023-01-31T02:09:38.766Z,67.41
2023-01-31T02:13:43.792Z,67.54
2023-01-31T02:17:50.898Z,67.35
2023-01-31T02:22:16.001Z,67.68
2023-01-31T02:26:46.994Z,68.01
2023-01-31T02:31:27.614Z,68.37
2023-01-31T02:35:47.869Z,68.52
2023-01-31T02:40:01.997Z,68.89
2023-01-31T02:44:32.186Z,68.79
2023-01-31T02:48:45.273Z,69.26
2023-01-31T02:52:52.620Z,69.28
2023-01-31T02:56:55.910Z,69.47
2023-01-31T03:01:00.966Z,69.37
2023-01-31T03:05:04.592Z,69.56
2023-01-31T03:09:21.516Z,69.76
2023-01-31T03:13:37.671Z,69.76
2023-01-31T03:17:52.568Z,69.70
2023-01-31T03:22:02.698Z,69.90
2023-01-31T03:26:08.814Z,69.71
2023-01-31T03:30:18.582Z,69.50
2023-01-31T03:34:21.852Z,69.12
2023-01-31T03:38:28.921Z,69.17
2023-01-31T03:42:50.404Z,69.07
2023-01-31T03:47:01.580Z,69.11
2023-01-31T03:51:09.120Z,69.19
2023-01-31T03:55:17.362Z,69.28
2023-01-31T03:59:25.788Z,69.14
2023-01-31T04:03:32.489Z,69.07
2023-01-31T04:07:36.902Z,69.09
2023-01-31T04:11:43.165Z,68.83
2023-01-31T04:15:47.623Z,67.93
2023-01-31T04:19:50.622Z,67.91
2023-01-31T04:23:53.817Z,67.41
2023-01-31T04:27:57.024Z,67.05
2023-01-31T04:32:01.579Z,66.43
2023-01-31T04:36:05.283Z,66.49
2023-01-31T04:40:10.049Z,64.52
2023-01-31T04:44:13.388Z,65.13
2023-01-31T04:48:17.790Z,64.72
2023-01-31T04:52:20.824Z,64.26
2023-01-31T04:56:23.836Z,64.56
2023-01-31T05:00:26.948Z,64.26
2023-01-31T05:04:31.591Z,64.49
2023-01-31T05:08:34.578Z,64.03
2023-01-31T05:12:37.585Z,64.14
2023-01-31T05:16:40.645Z,64.21
2023-01-31T05:20:45.047Z,63.74
2023-01-31T05:24:48.404Z,63.73
2023-01-31T05:28:51.595Z,62.87
2023-01-31T05:32:54.868Z,63.21
2023-01-31T05:36:59.632Z,63.13
2023-01-31T05:41:03.121Z,62.69
2023-01-31T05:45:07.715Z,62.54
2023-01-31T05:49:10.781Z,61.99
2023-01-31T05:53:15.147Z,62.05
2023-01-31T05:57:18.312Z,61.92
2023-01-31T06:01:23.092Z,62.56
2023-01-31T06:05:26.446Z,62.97
2023-01-31T06:09:30.864Z,63.47
2023-01-31T06:13:34.085Z,63.94
2023-01-31T06:17:37.128Z,64.37
2023-01-31T06:21:40.307Z,64.02
2023-01-31T06:25:44.976Z,64.50
2023-01-31T06:29:48.149Z,64.69
2023-01-31T06:33:51.201Z,64.85
2023-01-31T06:37:55.904Z,65.29
2023-01-31T06:42:00.322Z,65.46
2023-01-31T06:46:03.332Z,65.70
2023-01-31T06:50:07.212Z,66.35
2023-01-31T06:54:10.203Z,65.76
2023-01-31T06:58:14.603Z,65.56
2023-01-31T07:02:17.787Z,65.90
2023-01-31T07:06:21.660Z,65.69
2023-01-31T07:10:24.682Z,65.14
2023-01-31T07:14:29.054Z,65.41
2023-01-31T07:18:32.449Z,65.43
2023-01-31T07:22:35.540Z,63.79
2023-01-31T07:26:38.967Z,63.47
2023-01-31T07:30:44.010Z,63.01
2023-01-31T07:34:47.465Z,63.00
2023-01-31T07:38:50.599Z,62.77
2023-01-31T07:42:59.165Z,61.87
2023-01-31T07:47:03.511Z,62.18
2023-01-31T07:51:06.815Z,60.96
2023-01-31T07:55:10.661Z,61.50
2023-01-31T07:59:13.801Z,61.15
2023-01-31T08:03:34.125Z,61.63
2023-01-31T08:07:37.248Z,59.93
2023-01-31T08:11:40.256Z,59.95
2023-01-31T08:15:43.282Z,59.82
2023-01-31T08:19:47.693Z,59.72
2023-01-31T08:23:50.752Z,59.18
2023-01-31T08:27:53.934Z,57.77
2023-01-31T08:31:57.119Z,57.34
2023-01-31T08:36:11.717Z,56.33
2023-01-31T08:40:15.158Z,56.80
2023-01-31T08:44:18.179Z,57.06
2023-01-31T08:48:21.720Z,57.17
2023-01-31T08:52:26.262Z,57.57
2023-01-31T08:56:29.804Z,57.53
2023-01-31T09:00:34.104Z,57.57
2023-01-31T09:04:37.084Z,56.97
2023-01-31T09:08:41.466Z,57.62
2023-01-31T09:12:44.487Z,57.97
2023-01-31T09:16:47.565Z,58.34
2023-01-31T09:20:50.630Z,57.76
2023-01-31T09:24:55.029Z,57.96
2023-01-31T09:28:59.066Z,58.39
2023-01-31T09:33:02.411Z,58.74
2023-01-31T09:37:05.472Z,58.84
2023-01-31T09:41:20.575Z,59.18
2023-01-31T09:45:30.883Z,59.32
2023-01-31T09:49:44.003Z,60.18
2023-01-31T09:53:47.996Z,60.73
2023-01-31T09:58:01.349Z,61.12
2023-01-31T10:02:17.929Z,61.63
2023-01-31T10:06:25.041Z,61.27
2023-01-31T10:10:37.286Z,61.07
2023-01-31T10:14:48.567Z,61.17
2023-01-31T10:18:55.817Z,60.85
2023-01-31T10:23:04.638Z,61.06
2023-01-31T10:27:15.811Z,60.56
2023-01-31T10:31:29.281Z,60.64
2023-01-31T10:35:38.387Z,60.98
2023-01-31T10:39:45.765Z,60.39
2023-01-31T10:43:58.050Z,59.55
2023-01-31T10:48:15.395Z,59.67
2023-01-31T10:52:29.625Z,59.58
2023-01-31T10:56:35.810Z,58.94
2023-01-31T11:00:39.057Z,59.06
2023-01-31T11:04:44.719Z,58.61
2023-01-31T11:08:49.775Z,58.47
2023-01-31T11:12:59.862Z,58.66
2023-01-31T11:17:06.607Z,58.12
2023-01-31T11:21:19.672Z,58.18
2023-01-31T11:25:24.653Z,57.86
2023-01-31T11:29:30.843Z,57.08
2023-01-31T11:33:44.184Z,56.63
2023-01-31T11:37:54.449Z,56.55
2023-01-31T11:41:57.482Z,56.84
2023-01-31T11:46:02.768Z,56.29
2023-01-31T11:50:07.075Z,54.80
2023-01-31T11:54:19.173Z,55.57
2023-01-31T11:58:25.222Z,55.80
2023-01-31T12:02:34.445Z,55.90
2023-01-31T12:06:39.446Z,55.85
2023-01-31T12:10:47.298Z,55.96
2023-01-31T12:14:50.385Z,56.38
2023-01-31T12:19:07.492Z,56.80
2023-01-31T12:23:28.241Z,56.86
2023-01-31T12:27:47.369Z,57.21
2023-01-31T12:32:04.795Z,57.58
2023-01-31T12:36:38.502Z,57.45
2023-01-31T12:40:46.945Z,57.63
2023-01-31T12:44:58.236Z,58.28
2023-01-31T12:49:22.213Z,58.54
2023-01-31T12:53:44.803Z,59.17
2023-01-31T12:57:56.327Z,59.25
2023-01-31T13:02:12.607Z,59.46
2023-01-31T13:06:20.886Z,59.64
2023-01-31T13:10:36.967Z,59.35
2023-01-31T13:14:43.660Z,59.46
2023-01-31T13:18:51.072Z,59.34
2023-01-31T13:22:58.828Z,58.88
2023-01-31T13:27:05.879Z,58.85
2023-01-31T13:31:16.027Z,58.78
2023-01-31T13:35:25.818Z,58.41
2023-01-31T13:39:35.732Z,58.99
2023-01-31T13:43:38.753Z,57.99
2023-01-31T13:47:46.853Z,58.25
2023-01-31T13:51:57.041Z,58.45
2023-01-31T13:56:02.060Z,58.22
2023-01-31T14:00:09.742Z,58.30
2023-01-31T14:04:41.448Z,57.84
2023-01-31T14:09:02.050Z,57.71
2023-01-31T14:13:42.527Z,57.67
2023-01-31T14:18:00.427Z,57.50
2023-01-31T14:22:16.392Z,57.72
2023-01-31T14:26:52.515Z,57.83
2023-01-31T14:30:57.070Z,58.00
2023-01-31T14:35:07.149Z,57.79
2023-01-31T14:39:29.171Z,57.62
2023-01-31T14:43:55.028Z,58.17
2023-01-31T14:48:23.612Z,57.98
2023-01-31T14:52:48.822Z,57.93
2023-01-31T14:57:11.829Z,57.89
2023-01-31T15:01:21.439Z,57.91
2023-01-31T15:05:40.486Z,58.01
2023-01-31T15:09:43.707Z,58.00
2023-01-31T15:13:48.551Z,57.82
2023-01-31T15:17:54.871Z,57.77
2023-01-31T15:22:02.470Z,57.34
2023-01-31T15:26:05.929Z,57.27
2023-01-31T15:30:14.021Z,57.52
2023-01-31T15:34:22.826Z,57.34
2023-01-31T15:38:31.219Z,56.86
2023-01-31T15:42:35.292Z,57.16
2023-01-31T15:46:38.597Z,57.11
2023-01-31T15:50:52.176Z,56.90
2023-01-31T15:54:57.681Z,57.35
2023-01-31T15:59:01.077Z,57.10
2023-01-31T16:03:07.864Z,57.35
2023-01-31T16:07:18.679Z,57.20
2023-01-31T16:11:22.814Z,57.52
2023-01-31T16:15:28.766Z,57.34
2023-01-31T16:19:35.844Z,57.65
2023-01-31T16:23:40.485Z,57.56
2023-01-31T16:27:45.410Z,57.78
2023-01-31T16:31:51.187Z,57.92
2023-01-31T16:36:13.731Z,58.24
2023-01-31T16:40:23.694Z,57.87
2023-01-31T16:44:29.918Z,57.92
2023-01-31T16:48:34.864Z,58.19
2023-01-31T16:52:37.950Z,57.80
2023-01-31T16:56:43.206Z,58.18
2023-01-31T17:00:46.293Z,58.11
2023-01-31T17:04:50.970Z,58.30
2023-01-31T17:08:54.138Z,58.03
2023-01-31T17:13:02.643Z,57.79
2023-01-31T17:17:12.657Z,57.80
2023-01-31T17:21:19.532Z,57.89
2023-01-31T17:25:25.060Z,57.76
2023-01-31T17:29:29.505Z,57.29
2023-01-31T17:33:32.538Z,57.08
2023-01-31T17:37:35.535Z,57.51
2023-01-31T17:41:41.138Z,57.07
2023-01-31T17:45:45.692Z,57.75
2023-01-31T17:49:49.190Z,58.25
2023-01-31T17:53:52.200Z,59.00
2023-01-31T17:57:55.236Z,59.57
2023-01-31T18:02:00.539Z,59.71
2023-01-31T18:06:04.894Z,59.99
2023-01-31T18:10:08.632Z,59.95
2023-01-31T18:14:12.388Z,60.06
2023-01-31T18:18:16.791Z,60.12
2023-01-31T18:22:19.865Z,60.14
2023-01-31T18:26:24.769Z,60.01
2023-01-31T18:30:27.891Z,60.54
2023-01-31T18:34:33.114Z,60.17
2023-01-31T18:38:36.154Z,60.12
2023-01-31T18:42:39.159Z,59.65
2023-01-31T18:46:42.311Z,59.63
2023-01-31T18:50:47.131Z,59.77
2023-01-31T18:54:51.495Z,60.10
2023-01-31T18:58:54.591Z,60.04
2023-01-31T19:02:58.557Z,60.05
2023-01-31T19:07:03.050Z,60.56
2023-01-31T19:11:11.177Z,61.04
2023-01-31T19:15:15.086Z,61.09
2023-01-31T19:19:18.124Z,61.31
2023-01-31T19:23:22.530Z,61.04
2023-01-31T19:27:25.869Z,60.85
2023-01-31T19:31:31.934Z,60.58
2023-01-31T19:35:35.141Z,60.66
2023-01-31T19:39:39.584Z,60.80
2023-01-31T19:43:42.685Z,60.93
2023-01-31T19:47:45.750Z,60.76
2023-01-31T19:51:49.489Z,60.27
2023-01-31T19:55:55.146Z,60.32
2023-01-31T19:59:58.438Z,60.04
2023-01-31T20:04:01.478Z,60.01
2023-01-31T20:08:04.559Z,60.08
2023-01-31T20:12:09.178Z,60.09
2023-01-31T20:16:14.549Z,59.69
2023-01-31T20:20:17.916Z,60.28
2023-01-31T20:24:21.682Z,60.67
2023-01-31T20:28:27.792Z,60.64
2023-01-31T20:32:30.859Z,61.12
2023-01-31T20:36:34.057Z,61.36
2023-01-31T20:40:37.349Z,61.34
2023-01-31T20:44:42.405Z,61.33
2023-01-31T20:48:46.181Z,61.26
2023-01-31T20:52:51.372Z,61.65
2023-01-31T20:56:54.500Z,61.64
2023-01-31T21:01:00.081Z,61.67
2023-01-31T21:05:03.303Z,61.62
2023-01-31T21:09:06.858Z,61.60
2023-01-31T21:13:10.137Z,62.00
2023-01-31T21:17:14.970Z,62.13
2023-01-31T21:21:23.438Z,62.34
2023-01-31T21:25:26.515Z,62.30
2023-01-31T21:29:30.754Z,62.47
2023-01-31T21:33:35.485Z,62.69
2023-01-31T21:37:38.490Z,62.74
2023-01-31T21:41:58.855Z,63.26
2023-01-31T21:46:02.036Z,63.46
2023-01-31T21:50:07.567Z,63.66
2023-01-31T21:54:10.882Z,63.82
2023-01-31T21:58:13.988Z,63.92
2023-01-31T22:02:17.144Z,63.93
2023-01-31T22:06:25.740Z,64.43
2023-01-31T22:10:28.843Z,64.34
2023-01-31T22:14:31.908Z,64.60
2023-01-31T22:18:35.451Z,64.81
2023-01-31T22:22:39.898Z,65.17
2023-01-31T22:26:45.264Z,65.43
2023-01-31T22:30:54.087Z,65.49
2023-01-31T22:34:57.159Z,66.27
2023-01-31T22:39:01.945Z,66.41
2023-01-31T22:43:05.029Z,66.73
2023-01-31T22:47:08.391Z,66.83
2023-01-31T22:51:13.801Z,66.79
2023-01-31T22:55:18.525Z,67.09
2023-01-31T22:59:21.596Z,67.14
2023-01-31T23:03:24.824Z,67.28
2023-01-31T23:07:29.256Z,67.25
2023-01-31T23:11:33.775Z,67.46
2023-01-31T23:15:38.075Z,67.41
2023-01-31T23:19:41.163Z,67.63
2023-01-31T23:23:44.976Z,67.59
2023-01-31T23:27:49.652Z,67.67
2023-01-31T23:31:52.689Z,67.84
2023-01-31T23:35:55.782Z,67.90
2023-01-31T23:39:59.051Z,67.89
2023-01-31T23:44:03.703Z,67.83
2023-01-31T23:48:07.473Z,67.86
2023-01-31T23:52:10.946Z,67.96
2023-01-31T23:56:14.465Z,68.30
